sensor_id;sensor_type;location;lat;lon;timestamp;pressure;altitude;pressure_sealevel;temperature
48003;BMP280;33768;48.578;11.574;2023-03-23T00:00:29;95966.09;;;9.98
48003;BMP280;33768;48.578;11.574;2023-03-23T00:03:34;95958.44;;;9.97
48003;BMP280;33768;48.578;11.574;2023-03-23T00:06:38;95964.41;;;9.95
48003;BMP280;33768;48.578;11.574;2023-03-23T00:09:42;95963.47;;;9.93
48003;BMP280;33768;48.578;11.574;2023-03-23T00:12:46;95965.66;;;9.94
48003;BMP280;33768;48.578;11.574;2023-03-23T00:15:53;95966.41;;;9.95
48003;BMP280;33768;48.578;11.574;2023-03-23T00:19:00;95964.59;;;9.97
48003;BMP280;33768;48.578;11.574;2023-03-23T00:22:04;95971.19;;;10.01
48003;BMP280;33768;48.578;11.574;2023-03-23T00:25:08;95964.16;;;10.06
48003;BMP280;33768;48.578;11.574;2023-03-23T00:28:13;95962.53;;;10.10
48003;BMP280;33768;48.578;11.574;2023-03-23T00:31:18;95959.28;;;10.12
48003;BMP280;33768;48.578;11.574;2023-03-23T00:34:23;95958.94;;;10.15
48003;BMP280;33768;48.578;11.574;2023-03-23T00:37:28;95961.88;;;10.17
48003;BMP280;33768;48.578;11.574;2023-03-23T00:40:33;95954.41;;;10.18
48003;BMP280;33768;48.578;11.574;2023-03-23T00:43:39;95967.53;;;10.19
48003;BMP280;33768;48.578;11.574;2023-03-23T00:46:44;95952.97;;;10.17
48003;BMP280;33768;48.578;11.574;2023-03-23T00:49:49;95951.31;;;10.14
48003;BMP280;33768;48.578;11.574;2023-03-23T00:52:55;95950.72;;;10.08
48003;BMP280;33768;48.578;11.574;2023-03-23T00:56:00;95942.88;;;10.04
48003;BMP280;33768;48.578;11.574;2023-03-23T00:59:05;95943.22;;;10.01
48003;BMP280;33768;48.578;11.574;2023-03-23T01:02:09;95952.09;;;10.01
48003;BMP280;33768;48.578;11.574;2023-03-23T01:05:14;95956.50;;;10.04
48003;BMP280;33768;48.578;11.574;2023-03-23T01:08:19;95953.03;;;10.04
48003;BMP280;33768;48.578;11.574;2023-03-23T01:11:25;95947.59;;;10.04
48003;BMP280;33768;48.578;11.574;2023-03-23T01:14:28;95952.53;;;10.05
48003;BMP280;33768;48.578;11.574;2023-03-23T01:17:32;95950.72;;;10.08
48003;BMP280;33768;48.578;11.574;2023-03-23T01:20:37;95947.06;;;10.05
48003;BMP280;33768;48.578;11.574;2023-03-23T01:23:43;95947.59;;;10.04
48003;BMP280;33768;48.578;11.574;2023-03-23T01:26:47;95943.59;;;10.05
48003;BMP280;33768;48.578;11.574;2023-03-23T01:29:51;95942.34;;;10.06
48003;BMP280;33768;48.578;11.574;2023-03-23T01:32:55;95931.22;;;10.04
48003;BMP280;33768;48.578;11.574;2023-03-23T01:36:05;95917.38;;;10.02
48003;BMP280;33768;48.578;11.574;2023-03-23T01:39:10;95911.94;;;10.02
48003;BMP280;33768;48.578;11.574;2023-03-23T01:42:14;95915.59;;;10.04
48003;BMP280;33768;48.578;11.574;2023-03-23T01:51:32;95904.31;;;10.00
48003;BMP280;33768;48.578;11.574;2023-03-23T01:54:39;95911.72;;;10.00
48003;BMP280;33768;48.578;11.574;2023-03-23T01:57:44;95907.03;;;10.00
48003;BMP280;33768;48.578;11.574;2023-03-23T02:00:53;95914.47;;;10.00
48003;BMP280;33768;48.578;11.574;2023-03-23T02:03:59;95904.81;;;9.99
48003;BMP280;33768;48.578;11.574;2023-03-23T02:07:03;95907.56;;;9.99
48003;BMP280;33768;48.578;11.574;2023-03-23T02:10:08;95904.09;;;9.99
48003;BMP280;33768;48.578;11.574;2023-03-23T02:13:14;95908.84;;;9.98
48003;BMP280;33768;48.578;11.574;2023-03-23T02:16:55;95911.22;;;10.01
48003;BMP280;33768;48.578;11.574;2023-03-23T02:20:38;95910.34;;;10.06
48003;BMP280;33768;48.578;11.574;2023-03-23T02:24:23;95907.09;;;10.08
48003;BMP280;33768;48.578;11.574;2023-03-23T02:31:38;95914.22;;;10.11
48003;BMP280;33768;48.578;11.574;2023-03-23T02:37:49;95913.81;;;10.07
48003;BMP280;33768;48.578;11.574;2023-03-23T02:40:56;95902.69;;;10.05
48003;BMP280;33768;48.578;11.574;2023-03-23T02:44:04;95908.69;;;10.03
48003;BMP280;33768;48.578;11.574;2023-03-23T02:47:14;95901.75;;;10.02
48003;BMP280;33768;48.578;11.574;2023-03-23T02:50:22;95903.75;;;10.02
48003;BMP280;33768;48.578;11.574;2023-03-23T02:53:28;95884.47;;;10.00
48003;BMP280;33768;48.578;11.574;2023-03-23T02:56:34;95886.81;;;9.96
48003;BMP280;33768;48.578;11.574;2023-03-23T02:59:41;95893.50;;;9.95
48003;BMP280;33768;48.578;11.574;2023-03-23T03:02:48;95880.44;;;9.94
48003;BMP280;33768;48.578;11.574;2023-03-23T03:17:40;95883.03;;;9.99
48003;BMP280;33768;48.578;11.574;2023-03-23T03:20:26;95881.38;;;9.96
48003;BMP280;33768;48.578;11.574;2023-03-23T03:23:33;95886.31;;;9.85
48003;BMP280;33768;48.578;11.574;2023-03-23T03:26:43;95904.06;;;9.78
48003;BMP280;33768;48.578;11.574;2023-03-23T03:30:09;95918.94;;;9.77
48003;BMP280;33768;48.578;11.574;2023-03-23T03:33:18;95919.78;;;9.85
48003;BMP280;33768;48.578;11.574;2023-03-23T03:36:27;95894.97;;;9.76
48003;BMP280;33768;48.578;11.574;2023-03-23T03:39:35;95899.06;;;9.69
48003;BMP280;33768;48.578;11.574;2023-03-23T03:42:43;95912.44;;;9.60
48003;BMP280;33768;48.578;11.574;2023-03-23T03:45:47;95911.69;;;9.60
48003;BMP280;33768;48.578;11.574;2023-03-23T03:48:52;95913.38;;;9.63
48003;BMP280;33768;48.578;11.574;2023-03-23T03:51:59;95928.97;;;9.62
48003;BMP280;33768;48.578;11.574;2023-03-23T03:55:12;95942.94;;;9.59
48003;BMP280;33768;48.578;11.574;2023-03-23T03:58:19;95921.28;;;9.53
48003;BMP280;33768;48.578;11.574;2023-03-23T04:01:47;95915.41;;;9.49
48003;BMP280;33768;48.578;11.574;2023-03-23T04:04:51;95924.31;;;9.50
48003;BMP280;33768;48.578;11.574;2023-03-23T04:07:56;95914.34;;;9.52
48003;BMP280;33768;48.578;11.574;2023-03-23T04:11:07;95913.91;;;9.61
48003;BMP280;33768;48.578;11.574;2023-03-23T04:14:12;95924.53;;;9.72
48003;BMP280;33768;48.578;11.574;2023-03-23T04:17:20;95930.25;;;9.81
48003;BMP280;33768;48.578;11.574;2023-03-23T04:20:24;95935.59;;;9.87
48003;BMP280;33768;48.578;11.574;2023-03-23T04:23:30;95935.88;;;9.96
48003;BMP280;33768;48.578;11.574;2023-03-23T04:26:39;95924.31;;;10.03
48003;BMP280;33768;48.578;11.574;2023-03-23T04:29:55;95914.53;;;10.07
48003;BMP280;33768;48.578;11.574;2023-03-23T04:33:25;95928.03;;;10.13
48003;BMP280;33768;48.578;11.574;2023-03-23T04:36:31;95936.09;;;10.18
48003;BMP280;33768;48.578;11.574;2023-03-23T04:39:40;95944.50;;;10.28
48003;BMP280;33768;48.578;11.574;2023-03-23T04:42:46;95945.13;;;10.33
48003;BMP280;33768;48.578;11.574;2023-03-23T04:46:20;95948.78;;;10.36
48003;BMP280;33768;48.578;11.574;2023-03-23T04:49:25;95939.16;;;10.42
48003;BMP280;33768;48.578;11.574;2023-03-23T04:52:39;95931.38;;;10.46
48003;BMP280;33768;48.578;11.574;2023-03-23T04:55:48;95921.19;;;10.47
48003;BMP280;33768;48.578;11.574;2023-03-23T04:58:55;95930.09;;;10.47
48003;BMP280;33768;48.578;11.574;2023-03-23T05:02:19;95939.06;;;10.83
48003;BMP280;33768;48.578;11.574;2023-03-23T05:05:25;95942.19;;;11.22
48003;BMP280;33768;48.578;11.574;2023-03-23T05:08:32;95929.94;;;11.50
48003;BMP280;33768;48.578;11.574;2023-03-23T05:11:37;95920.38;;;11.36
48003;BMP280;33768;48.578;11.574;2023-03-23T05:14:42;95914.13;;;11.21
48003;BMP280;33768;48.578;11.574;2023-03-23T05:17:52;95902.25;;;11.04
48003;BMP280;33768;48.578;11.574;2023-03-23T05:21:02;95896.16;;;10.91
48003;BMP280;33768;48.578;11.574;2023-03-23T05:24:11;95898.31;;;10.85
48003;BMP280;33768;48.578;11.574;2023-03-23T05:27:18;95888.47;;;10.82
48003;BMP280;33768;48.578;11.574;2023-03-23T05:30:25;95898.31;;;10.85
48003;BMP280;33768;48.578;11.574;2023-03-23T05:33:30;95897.63;;;10.92
48003;BMP280;33768;48.578;11.574;2023-03-23T05:36:36;95891.47;;;10.98
48003;BMP280;33768;48.578;11.574;2023-03-23T05:39:43;95885.34;;;11.13
48003;BMP280;33768;48.578;11.574;2023-03-23T05:43:11;95888.28;;;11.22
48003;BMP280;33768;48.578;11.574;2023-03-23T05:46:42;95883.03;;;11.31
48003;BMP280;33768;48.578;11.574;2023-03-23T05:49:47;95883.25;;;11.41
48003;BMP280;33768;48.578;11.574;2023-03-23T05:52:55;95884.75;;;11.49
48003;BMP280;33768;48.578;11.574;2023-03-23T05:56:02;95882.22;;;11.58
48003;BMP280;33768;48.578;11.574;2023-03-23T05:59:23;95874.94;;;11.68
48003;BMP280;33768;48.578;11.574;2023-03-23T06:02:30;95880.97;;;11.67
48003;BMP280;33768;48.578;11.574;2023-03-23T06:05:35;95884.03;;;11.63
48003;BMP280;33768;48.578;11.574;2023-03-23T06:08:39;95884.59;;;11.62
48003;BMP280;33768;48.578;11.574;2023-03-23T06:11:44;95881.13;;;11.61
48003;BMP280;33768;48.578;11.574;2023-03-23T06:15:23;95878.03;;;11.57
48003;BMP280;33768;48.578;11.574;2023-03-23T06:18:37;95878.75;;;11.58
48003;BMP280;33768;48.578;11.574;2023-03-23T06:22:05;95874.22;;;11.60
48003;BMP280;33768;48.578;11.574;2023-03-23T06:25:20;95870.56;;;11.58
48003;BMP280;33768;48.578;11.574;2023-03-23T06:28:26;95870.75;;;11.60
48003;BMP280;33768;48.578;11.574;2023-03-23T06:31:33;95871.66;;;11.62
48003;BMP280;33768;48.578;11.574;2023-03-23T06:34:39;95874.94;;;11.68
48003;BMP280;33768;48.578;11.574;2023-03-23T06:38:22;95878.06;;;11.72
48003;BMP280;33768;48.578;11.574;2023-03-23T06:41:32;95878.78;;;11.73
48003;BMP280;33768;48.578;11.574;2023-03-23T06:44:36;95886.81;;;11.78
48003;BMP280;33768;48.578;11.574;2023-03-23T06:47:41;95883.72;;;11.89
48003;BMP280;33768;48.578;11.574;2023-03-23T06:50:46;95893.94;;;11.96
48003;BMP280;33768;48.578;11.574;2023-03-23T06:53:52;95884.63;;;11.99
48003;BMP280;33768;48.578;11.574;2023-03-23T06:56:57;95893.56;;;12.07
48003;BMP280;33768;48.578;11.574;2023-03-23T07:00:02;95889.00;;;12.17
48003;BMP280;33768;48.578;11.574;2023-03-23T07:03:09;95881.38;;;12.22
48003;BMP280;33768;48.578;11.574;2023-03-23T07:06:17;95883.00;;;12.25
48003;BMP280;33768;48.578;11.574;2023-03-23T07:09:27;95884.09;;;12.37
48003;BMP280;33768;48.578;11.574;2023-03-23T07:12:31;95892.63;;;12.49
48003;BMP280;33768;48.578;11.574;2023-03-23T07:15:38;95895.91;;;12.62
48003;BMP280;33768;48.578;11.574;2023-03-23T07:18:42;95894.06;;;12.72
48003;BMP280;33768;48.578;11.574;2023-03-23T07:21:47;95891.69;;;12.83
48003;BMP280;33768;48.578;11.574;2023-03-23T07:24:53;95891.09;;;12.92
48003;BMP280;33768;48.578;11.574;2023-03-23T07:28:04;95888.72;;;13.03
48003;BMP280;33768;48.578;11.574;2023-03-23T07:31:08;95882.06;;;13.21
48003;BMP280;33768;48.578;11.574;2023-03-23T07:34:14;95874.69;;;13.38
48003;BMP280;33768;48.578;11.574;2023-03-23T07:37:41;95878.94;;;13.63
48003;BMP280;33768;48.578;11.574;2023-03-23T07:40:45;95879.56;;;13.78
48003;BMP280;33768;48.578;11.574;2023-03-23T07:43:53;95886.78;;;13.91
48003;BMP280;33768;48.578;11.574;2023-03-23T07:47:08;95888.50;;;14.10
48003;BMP280;33768;48.578;11.574;2023-03-23T07:50:13;95894.34;;;14.31
48003;BMP280;33768;48.578;11.574;2023-03-23T07:53:19;95896.97;;;14.46
48003;BMP280;33768;48.578;11.574;2023-03-23T07:56:32;95902.97;;;14.52
48003;BMP280;33768;48.578;11.574;2023-03-23T07:59:43;95898.16;;;14.60
48003;BMP280;33768;48.578;11.574;2023-03-23T08:02:52;95893.47;;;14.70
48003;BMP280;33768;48.578;11.574;2023-03-23T08:06:11;95896.88;;;14.77
48003;BMP280;33768;48.578;11.574;2023-03-23T08:09:28;95906.75;;;14.97
48003;BMP280;33768;48.578;11.574;2023-03-23T08:12:36;95904.66;;;15.22
48003;BMP280;33768;48.578;11.574;2023-03-23T08:15:55;95906.56;;;15.45
48003;BMP280;33768;48.578;11.574;2023-03-23T08:19:26;95908.72;;;15.64
48003;BMP280;33768;48.578;11.574;2023-03-23T08:22:40;95921.22;;;15.74
48003;BMP280;33768;48.578;11.574;2023-03-23T08:26:07;95916.75;;;16.04
48003;BMP280;33768;48.578;11.574;2023-03-23T08:29:38;95913.63;;;16.43
48003;BMP280;33768;48.578;11.574;2023-03-23T08:33:09;95911.22;;;16.75
48003;BMP280;33768;48.578;11.574;2023-03-23T08:36:26;95907.63;;;16.91
48003;BMP280;33768;48.578;11.574;2023-03-23T08:39:42;95910.53;;;16.84
48003;BMP280;33768;48.578;11.574;2023-03-23T08:42:50;95914.31;;;16.89
48003;BMP280;33768;48.578;11.574;2023-03-23T08:46:33;95925.34;;;16.89
48003;BMP280;33768;48.578;11.574;2023-03-23T08:50:01;95930.06;;;16.69
48003;BMP280;33768;48.578;11.574;2023-03-23T08:53:24;95937.03;;;16.70
48003;BMP280;33768;48.578;11.574;2023-03-23T08:56:39;95926.72;;;16.61
48003;BMP280;33768;48.578;11.574;2023-03-23T09:00:04;95949.94;;;16.77
48003;BMP280;33768;48.578;11.574;2023-03-23T09:03:34;95941.25;;;16.81
48003;BMP280;33768;48.578;11.574;2023-03-23T09:06:55;95935.25;;;16.65
48003;BMP280;33768;48.578;11.574;2023-03-23T09:10:01;95943.69;;;16.58
48003;BMP280;33768;48.578;11.574;2023-03-23T09:13:06;95942.94;;;16.58
48003;BMP280;33768;48.578;11.574;2023-03-23T09:16:10;95949.00;;;16.47
48003;BMP280;33768;48.578;11.574;2023-03-23T09:19:14;95939.53;;;16.40
48003;BMP280;33768;48.578;11.574;2023-03-23T09:22:19;95954.06;;;16.41
48003;BMP280;33768;48.578;11.574;2023-03-23T09:25:27;95961.44;;;16.48
48003;BMP280;33768;48.578;11.574;2023-03-23T09:28:31;95952.94;;;16.62
48003;BMP280;33768;48.578;11.574;2023-03-23T09:31:35;95944.00;;;16.81
48003;BMP280;33768;48.578;11.574;2023-03-23T09:34:40;95951.75;;;17.01
48003;BMP280;33768;48.578;11.574;2023-03-23T09:37:45;95946.88;;;17.27
48003;BMP280;33768;48.578;11.574;2023-03-23T09:47:41;95935.25;;;17.57
48003;BMP280;33768;48.578;11.574;2023-03-23T09:50:52;95930.41;;;17.85
48003;BMP280;33768;48.578;11.574;2023-03-23T09:54:14;95934.19;;;17.81
48003;BMP280;33768;48.578;11.574;2023-03-23T09:57:51;95934.19;;;17.81
48003;BMP280;33768;48.578;11.574;2023-03-23T10:01:07;95950.44;;;17.95
48003;BMP280;33768;48.578;11.574;2023-03-23T10:04:43;95944.94;;;17.86
48003;BMP280;33768;48.578;11.574;2023-03-23T10:07:47;95943.94;;;17.82
48003;BMP280;33768;48.578;11.574;2023-03-23T10:17:52;95949.28;;;17.98
48003;BMP280;33768;48.578;11.574;2023-03-23T10:21:01;95941.59;;;17.97
48003;BMP280;33768;48.578;11.574;2023-03-23T10:24:10;95955.09;;;17.93
48003;BMP280;33768;48.578;11.574;2023-03-23T10:27:23;95953.63;;;18.20
48003;BMP280;33768;48.578;11.574;2023-03-23T10:30:34;95959.59;;;18.47
48003;BMP280;33768;48.578;11.574;2023-03-23T10:33:42;95951.41;;;18.67
48003;BMP280;33768;48.578;11.574;2023-03-23T10:40:23;95948.69;;;19.29
48003;BMP280;33768;48.578;11.574;2023-03-23T10:43:28;95951.34;;;19.48
48003;BMP280;33768;48.578;11.574;2023-03-23T10:46:47;95953.53;;;19.81
48003;BMP280;33768;48.578;11.574;2023-03-23T10:50:04;95956.53;;;20.17
48003;BMP280;33768;48.578;11.574;2023-03-23T10:53:45;95951.47;;;20.14
48003;BMP280;33768;48.578;11.574;2023-03-23T10:56:51;95951.50;;;19.61
48003;BMP280;33768;48.578;11.574;2023-03-23T11:00:01;95956.25;;;19.49
48003;BMP280;33768;48.578;11.574;2023-03-23T11:06:26;95958.56;;;19.32
48003;BMP280;33768;48.578;11.574;2023-03-23T11:09:40;95947.06;;;19.36
48003;BMP280;33768;48.578;11.574;2023-03-23T11:12:58;95953.34;;;19.47
48003;BMP280;33768;48.578;11.574;2023-03-23T11:16:02;95958.81;;;19.77
48003;BMP280;33768;48.578;11.574;2023-03-23T11:19:16;95954.00;;;19.78
48003;BMP280;33768;48.578;11.574;2023-03-23T11:22:31;95963.03;;;20.22
48003;BMP280;33768;48.578;11.574;2023-03-23T11:25:50;95966.88;;;20.17
48003;BMP280;33768;48.578;11.574;2023-03-23T11:28:59;95963.03;;;20.22
48003;BMP280;33768;48.578;11.574;2023-03-23T11:32:10;95957.72;;;20.14
48003;BMP280;33768;48.578;11.574;2023-03-23T11:35:21;95947.84;;;20.11
48003;BMP280;33768;48.578;11.574;2023-03-23T11:38:26;95955.75;;;21.05
48003;BMP280;33768;48.578;11.574;2023-03-23T11:41:33;95955.13;;;21.30
48003;BMP280;33768;48.578;11.574;2023-03-23T11:44:43;95952.47;;;21.20
48003;BMP280;33768;48.578;11.574;2023-03-23T11:51:08;95942.25;;;20.89
48003;BMP280;33768;48.578;11.574;2023-03-23T11:54:17;95958.31;;;20.56
48003;BMP280;33768;48.578;11.574;2023-03-23T11:57:23;95955.84;;;19.85
48003;BMP280;33768;48.578;11.574;2023-03-23T12:00:28;95957.69;;;20.03
48003;BMP280;33768;48.578;11.574;2023-03-23T12:07:00;95962.28;;;20.10
48003;BMP280;33768;48.578;11.574;2023-03-23T12:13:42;95961.19;;;20.04
48003;BMP280;33768;48.578;11.574;2023-03-23T12:17:13;95963.00;;;20.10
48003;BMP280;33768;48.578;11.574;2023-03-23T12:27:03;95948.81;;;19.52
48003;BMP280;33768;48.578;11.574;2023-03-23T12:30:21;95957.72;;;19.30
48003;BMP280;33768;48.578;11.574;2023-03-23T12:33:48;95956.09;;;19.15
48003;BMP280;33768;48.578;11.574;2023-03-23T12:40:46;95953.19;;;19.34
48003;BMP280;33768;48.578;11.574;2023-03-23T12:43:59;95945.34;;;19.10
48003;BMP280;33768;48.578;11.574;2023-03-23T12:50:44;95947.31;;;18.98
48003;BMP280;33768;48.578;11.574;2023-03-23T12:53:55;95951.84;;;18.94
48003;BMP280;33768;48.578;11.574;2023-03-23T12:57:12;95945.91;;;18.88
48003;BMP280;33768;48.578;11.574;2023-03-23T13:00:20;95942.69;;;18.91
48003;BMP280;33768;48.578;11.574;2023-03-23T13:03:31;95938.97;;;18.78
48003;BMP280;33768;48.578;11.574;2023-03-23T13:06:42;95945.25;;;18.69
48003;BMP280;33768;48.578;11.574;2023-03-23T13:10:08;95939.72;;;18.69
48003;BMP280;33768;48.578;11.574;2023-03-23T13:13:19;95940.81;;;18.54
48003;BMP280;33768;48.578;11.574;2023-03-23T13:16:39;95940.81;;;18.24
48003;BMP280;33768;48.578;11.574;2023-03-23T13:20:01;95943.13;;;18.28
48003;BMP280;33768;48.578;11.574;2023-03-23T13:23:25;95948.16;;;18.41
48003;BMP280;33768;48.578;11.574;2023-03-23T13:26:30;95947.88;;;18.37
48003;BMP280;33768;48.578;11.574;2023-03-23T13:29:34;95947.56;;;18.42
48003;BMP280;33768;48.578;11.574;2023-03-23T13:32:39;95937.78;;;18.50
48003;BMP280;33768;48.578;11.574;2023-03-23T13:35:44;95923.09;;;18.57
48003;BMP280;33768;48.578;11.574;2023-03-23T13:38:50;95921.25;;;18.71
48003;BMP280;33768;48.578;11.574;2023-03-23T13:45:36;95911.00;;;18.83
48003;BMP280;33768;48.578;11.574;2023-03-23T13:49:32;95910.31;;;19.03
48003;BMP280;33768;48.578;11.574;2023-03-23T13:52:16;95907.34;;;19.11
48003;BMP280;33768;48.578;11.574;2023-03-23T13:58:25;95906.59;;;19.51
48003;BMP280;33768;48.578;11.574;2023-03-23T14:01:38;95906.28;;;19.68
48003;BMP280;33768;48.578;11.574;2023-03-23T14:04:47;95903.91;;;19.74
48003;BMP280;33768;48.578;11.574;2023-03-23T14:08:10;95902.75;;;19.88
48003;BMP280;33768;48.578;11.574;2023-03-23T14:11:27;95901.00;;;20.04
48003;BMP280;33768;48.578;11.574;2023-03-23T14:14:34;95888.66;;;19.96
48003;BMP280;33768;48.578;11.574;2023-03-23T14:17:43;95887.84;;;19.93
48003;BMP280;33768;48.578;11.574;2023-03-23T14:20:48;95891.72;;;20.11
48003;BMP280;33768;48.578;11.574;2023-03-23T14:23:52;95888.56;;;20.05
48003;BMP280;33768;48.578;11.574;2023-03-23T14:27:22;95896.75;;;19.92
48003;BMP280;33768;48.578;11.574;2023-03-23T14:30:35;95893.13;;;19.89
48003;BMP280;33768;48.578;11.574;2023-03-23T14:33:39;95890.44;;;19.80
48003;BMP280;33768;48.578;11.574;2023-03-23T14:36:45;95893.31;;;19.71
48003;BMP280;33768;48.578;11.574;2023-03-23T14:39:52;95896.09;;;19.50
48003;BMP280;33768;48.578;11.574;2023-03-23T14:42:57;95903.75;;;19.40
48003;BMP280;33768;48.578;11.574;2023-03-23T14:46:07;95898.03;;;19.27
48003;BMP280;33768;48.578;11.574;2023-03-23T14:49:15;95896.41;;;19.12
48003;BMP280;33768;48.578;11.574;2023-03-23T14:52:23;95892.66;;;18.87
48003;BMP280;33768;48.578;11.574;2023-03-23T14:55:30;95892.03;;;18.68
48003;BMP280;33768;48.578;11.574;2023-03-23T14:58:35;95896.59;;;18.54
48003;BMP280;33768;48.578;11.574;2023-03-23T15:01:41;95887.66;;;18.45
48003;BMP280;33768;48.578;11.574;2023-03-23T15:04:48;95890.63;;;18.28
48003;BMP280;33768;48.578;11.574;2023-03-23T15:07:56;95893.59;;;18.11
48003;BMP280;33768;48.578;11.574;2023-03-23T15:11:12;95889.84;;;17.97
48003;BMP280;33768;48.578;11.574;2023-03-23T15:14:19;95887.09;;;17.97
48003;BMP280;33768;48.578;11.574;2023-03-23T15:17:29;95887.66;;;17.96
48003;BMP280;33768;48.578;11.574;2023-03-23T15:20:48;95885.50;;;17.94
48003;BMP280;33768;48.578;11.574;2023-03-23T15:23:53;95889.31;;;17.89
48003;BMP280;33768;48.578;11.574;2023-03-23T15:27:17;95890.75;;;17.81
48003;BMP280;33768;48.578;11.574;2023-03-23T15:33:25;95886.88;;;17.75
48003;BMP280;33768;48.578;11.574;2023-03-23T15:36:34;95894.28;;;17.63
48003;BMP280;33768;48.578;11.574;2023-03-23T15:39:40;95887.47;;;17.54
48003;BMP280;33768;48.578;11.574;2023-03-23T15:42:45;95887.94;;;17.42
48003;BMP280;33768;48.578;11.574;2023-03-23T15:45:54;95890.69;;;17.32
48003;BMP280;33768;48.578;11.574;2023-03-23T15:52:03;95881.94;;;17.08
48003;BMP280;33768;48.578;11.574;2023-03-23T15:58:25;95886.31;;;17.01
48003;BMP280;33768;48.578;11.574;2023-03-23T16:01:30;95890.25;;;16.98
48003;BMP280;33768;48.578;11.574;2023-03-23T16:04:34;95886.75;;;16.89
48003;BMP280;33768;48.578;11.574;2023-03-23T16:07:38;95888.88;;;16.81
48003;BMP280;33768;48.578;11.574;2023-03-23T16:10:42;95898.91;;;16.76
48003;BMP280;33768;48.578;11.574;2023-03-23T16:13:46;95894.25;;;16.69
48003;BMP280;33768;48.578;11.574;2023-03-23T16:16:51;95895.09;;;16.62
48003;BMP280;33768;48.578;11.574;2023-03-23T16:19:55;95902.19;;;16.56
48003;BMP280;33768;48.578;11.574;2023-03-23T16:22:59;95894.47;;;16.45
48003;BMP280;33768;48.578;11.574;2023-03-23T16:26:04;95890.56;;;16.39
48003;BMP280;33768;48.578;11.574;2023-03-23T16:29:11;95900.97;;;16.31
48003;BMP280;33768;48.578;11.574;2023-03-23T16:32:15;95897.91;;;16.27
48003;BMP280;33768;48.578;11.574;2023-03-23T16:35:20;95895.97;;;16.20
48003;BMP280;33768;48.578;11.574;2023-03-23T16:38:24;95907.66;;;16.11
48003;BMP280;33768;48.578;11.574;2023-03-23T16:41:28;95897.50;;;16.04
48003;BMP280;33768;48.578;11.574;2023-03-23T16:44:34;95902.53;;;15.98
48003;BMP280;33768;48.578;11.574;2023-03-23T16:47:39;95905.13;;;15.96
48003;BMP280;33768;48.578;11.574;2023-03-23T16:50:43;95905.41;;;15.91
48003;BMP280;33768;48.578;11.574;2023-03-23T16:53:48;95905.66;;;15.86
48003;BMP280;33768;48.578;11.574;2023-03-23T16:56:52;95907.38;;;15.81
48003;BMP280;33768;48.578;11.574;2023-03-23T16:59:56;95903.56;;;15.77
48003;BMP280;33768;48.578;11.574;2023-03-23T17:03:01;95914.69;;;15.69
48003;BMP280;33768;48.578;11.574;2023-03-23T17:06:05;95917.69;;;15.64
48003;BMP280;33768;48.578;11.574;2023-03-23T17:09:09;95911.56;;;15.56
48003;BMP280;33768;48.578;11.574;2023-03-23T17:12:13;95915.44;;;15.53
48003;BMP280;33768;48.578;11.574;2023-03-23T17:15:17;95916.09;;;15.44
48003;BMP280;33768;48.578;11.574;2023-03-23T17:18:23;95919.09;;;15.39
48003;BMP280;33768;48.578;11.574;2023-03-23T17:21:27;95915.16;;;15.33
48003;BMP280;33768;48.578;11.574;2023-03-23T17:24:31;95918.88;;;15.28
48003;BMP280;33768;48.578;11.574;2023-03-23T17:27:35;95913.06;;;15.24
48003;BMP280;33768;48.578;11.574;2023-03-23T17:30:41;95929.25;;;15.20
48003;BMP280;33768;48.578;11.574;2023-03-23T17:33:46;95912.75;;;15.20
48003;BMP280;33768;48.578;11.574;2023-03-23T17:36:50;95919.69;;;15.21
48003;BMP280;33768;48.578;11.574;2023-03-23T17:39:54;95920.25;;;15.19
48003;BMP280;33768;48.578;11.574;2023-03-23T17:42:58;95927.47;;;15.15
48003;BMP280;33768;48.578;11.574;2023-03-23T17:46:02;95930.59;;;15.11
48003;BMP280;33768;48.578;11.574;2023-03-23T17:49:06;95930.47;;;15.09
48003;BMP280;33768;48.578;11.574;2023-03-23T17:52:11;95934.88;;;15.05
48003;BMP280;33768;48.578;11.574;2023-03-23T17:55:15;95931.94;;;15.03
48003;BMP280;33768;48.578;11.574;2023-03-23T17:58:20;95939.13;;;14.99
48003;BMP280;33768;48.578;11.574;2023-03-23T18:01:23;95952.56;;;14.95
48003;BMP280;33768;48.578;11.574;2023-03-23T18:04:28;95950.06;;;14.89
48003;BMP280;33768;48.578;11.574;2023-03-23T18:07:32;95952.28;;;14.83
48003;BMP280;33768;48.578;11.574;2023-03-23T18:10:38;95961.50;;;14.78
48003;BMP280;33768;48.578;11.574;2023-03-23T18:13:42;95961.31;;;14.76
48003;BMP280;33768;48.578;11.574;2023-03-23T18:16:47;95959.00;;;14.73
48003;BMP280;33768;48.578;11.574;2023-03-23T18:19:52;95955.75;;;14.67
48003;BMP280;33768;48.578;11.574;2023-03-23T18:22:57;95960.00;;;14.61
48003;BMP280;33768;48.578;11.574;2023-03-23T18:26:03;95963.88;;;14.58
48003;BMP280;33768;48.578;11.574;2023-03-23T18:29:07;95963.38;;;14.52
48003;BMP280;33768;48.578;11.574;2023-03-23T18:32:11;95964.13;;;14.52
48003;BMP280;33768;48.578;11.574;2023-03-23T18:35:16;95963.72;;;14.56
48003;BMP280;33768;48.578;11.574;2023-03-23T18:38:19;95962.59;;;14.59
48003;BMP280;33768;48.578;11.574;2023-03-23T18:41:24;95963.88;;;14.58
48003;BMP280;33768;48.578;11.574;2023-03-23T18:44:29;95964.44;;;14.56
48003;BMP280;33768;48.578;11.574;2023-03-23T18:47:33;95959.34;;;14.53
48003;BMP280;33768;48.578;11.574;2023-03-23T18:50:37;95961.59;;;14.47
48003;BMP280;33768;48.578;11.574;2023-03-23T18:53:41;95960.34;;;14.40
48003;BMP280;33768;48.578;11.574;2023-03-23T18:56:46;95960.75;;;14.37
48003;BMP280;33768;48.578;11.574;2023-03-23T18:59:50;95963.56;;;14.30
48003;BMP280;33768;48.578;11.574;2023-03-23T19:02:54;95958.47;;;14.26
48003;BMP280;33768;48.578;11.574;2023-03-23T19:05:59;95957.56;;;14.24
48003;BMP280;33768;48.578;11.574;2023-03-23T19:09:03;95949.72;;;14.20
48003;BMP280;33768;48.578;11.574;2023-03-23T19:12:08;95955.59;;;14.17
48003;BMP280;33768;48.578;11.574;2023-03-23T19:15:13;95955.41;;;14.15
48003;BMP280;33768;48.578;11.574;2023-03-23T19:18:17;95961.31;;;14.11
48003;BMP280;33768;48.578;11.574;2023-03-23T19:21:21;95969.91;;;14.08